Arnett, Oklahoma
Current Conditions -  °F | °C
As of 8:53 PM on Wednesday 22 Oct 2014 (Local Time) from KGAG Reporting Station
Overcast Overcast  
Wind Chill: 16°   Ceiling: 600
Heat Index: 16°   Visibility: 8mi
Dew Point: 15°   Wind: 15mph
Humidity: 96%   Direction: 180°S
Pressure: 30.09"   Gusts: 24mph
Location:  36.14°N, 99.77°W
Report Text: KGAG 230153Z AUTO 18013G21KT 8SM OVC006 16/15 A3009 RMK AO2 SLP178 T01560150
Loading
Personal Weather Stations






























Interactive Weather Map
Tropical Storm Tracking
New forecast layout! Learn more

10-Day Weather Forecast

Advertisements
Track Severe Weather on mobile